Time;durP1;ratioP1;P1;durP2;ratioP2;P2;SDS_P1;SDS_P2;PMS_P1;PMS_P2;Temp;Humidity;BMP_temperature;BMP_pressure;BME280_temperature;BME280_humidity;BME280_pressure;Samples;Min_cycle;Max_cycle;Signal;HPM_P1;HPM_P2
2021/03/20 00:01:42;;;;;;;7.12;3.10;;;;;;;0.44;69.30;100594.23;1784845;79;21204;-71
2021/03/20 00:04:08;;;;;;;7.33;2.72;;;;;;;0.34;69.23;100591.25;1787317;78;21211;-71
2021/03/20 00:06:38;;;;;;;5.40;2.67;;;;;;;0.48;69.07;100600.93;1785761;78;21220;-75
2021/03/20 00:09:10;;;;;;;4.45;2.62;;;;;;;0.38;69.42;100593.25;1788955;78;21225;-76
2021/03/20 00:11:37;;;;;;;5.92;2.85;;;;;;;0.44;69.50;100608.52;1784392;78;21209;-73
2021/03/20 00:14:03;;;;;;;4.93;2.50;;;;;;;0.25;69.24;100609.91;1767982;80;21515;-73
2021/03/20 00:16:29;;;;;;;5.05;2.50;;;;;;;0.23;69.08;100603.49;1763007;80;21235;-72
2021/03/20 00:18:54;;;;;;;7.47;2.47;;;;;;;0.24;69.30;100612.14;1758952;80;21210;-72
2021/03/20 00:21:20;;;;;;;6.90;2.70;;;;;;;0.44;69.13;100604.62;1759494;80;21769;-73
2021/03/20 00:23:47;;;;;;;5.37;2.70;;;;;;;0.67;68.57;100597.75;1758932;80;21287;-74
2021/03/20 00:26:13;;;;;;;8.18;3.10;;;;;;;0.66;68.47;100603.03;1759020;80;21217;-74
2021/03/20 00:28:38;;;;;;;8.90;3.40;;;;;;;0.68;67.93;100598.58;1761058;79;21007;-72
2021/03/20 00:31:09;;;;;;;6.37;2.93;;;;;;;0.54;68.03;100603.20;1760286;80;20915;-72
2021/03/20 00:33:35;;;;;;;4.75;2.47;;;;;;;0.55;68.49;100607.49;1759472;80;21636;-72
2021/03/20 00:36:01;;;;;;;7.23;3.33;;;;;;;0.64;68.26;100603.11;1758022;80;21001;-72
2021/03/20 00:38:27;;;;;;;8.07;3.27;;;;;;;0.63;68.27;100613.12;1759827;80;20937;-71
2021/03/20 00:40:54;;;;;;;5.65;3.22;;;;;;;0.62;67.76;100602.36;1760565;80;21159;-71
2021/03/20 00:43:20;;;;;;;8.10;3.62;;;;;;;0.79;67.86;100605.81;1759473;80;21261;-72
2021/03/20 00:45:46;;;;;;;9.80;3.60;;;;;;;0.80;67.85;100606.20;1761457;80;21221;-73
2021/03/20 00:48:20;;;;;;;7.83;4.10;;;;;;;0.70;68.04;100604.09;1760581;80;21181;-73
2021/03/20 00:50:46;;;;;;;7.87;3.70;;;;;;;0.78;67.88;100606.72;1758446;80;21635;-72
2021/03/20 00:53:11;;;;;;;9.47;3.70;;;;;;;0.65;67.50;100612.60;1757681;80;21391;-72
2021/03/20 00:55:37;;;;;;;9.90;3.27;;;;;;;0.59;67.72;100609.02;1759216;80;20964;-72
2021/03/20 00:58:31;;;;;;;7.20;3.20;;;;;;;0.73;67.27;100614.80;1760561;80;21036;-72
2021/03/20 01:01:18;;;;;;;8.28;3.67;;;;;;;0.69;67.51;100603.70;1759165;80;21202;-74
2021/03/20 01:03:44;;;;;;;8.75;3.70;;;;;;;0.58;68.32;100606.03;1759851;80;21675;-73
2021/03/20 01:06:14;;;;;;;7.90;3.85;;;;;;;0.70;68.22;100609.28;1757577;80;21245;-74
2021/03/20 01:08:40;;;;;;;9.93;4.00;;;;;;;0.64;67.68;100612.21;1759029;80;21225;-74
2021/03/20 01:11:06;;;;;;;8.33;3.83;;;;;;;0.53;67.88;100608.88;1759678;80;21231;-75
2021/03/20 01:13:32;;;;;;;8.80;3.50;;;;;;;0.65;67.93;100605.24;1766966;80;21248;-77
2021/03/20 01:15:58;;;;;;;9.30;3.57;;;;;;;0.65;68.01;100606.10;1771897;79;21117;-75
2021/03/20 01:18:24;;;;;;;8.33;3.83;;;;;;;0.66;68.07;100604.33;1772493;79;22482;-75
2021/03/20 01:20:49;;;;;;;7.27;3.30;;;;;;;0.72;67.88;100604.00;1770448;79;21344;-74
2021/03/20 01:23:15;;;;;;;8.63;3.53;;;;;;;0.53;68.25;100610.64;1767627;80;20925;-75
2021/03/20 01:25:41;;;;;;;6.43;3.30;;;;;;;0.62;68.00;100610.16;1776178;78;21037;-74
2021/03/20 01:28:09;;;;;;;8.33;3.63;;;;;;;0.58;68.25;100607.80;1769179;78;21594;-76
2021/03/20 01:30:39;;;;;;;8.50;3.37;;;;;;;0.33;68.58;100613.80;1771113;78;21222;-75
2021/03/20 01:33:05;;;;;;;5.47;2.87;;;;;;;0.33;68.59;100611.20;1771055;79;21744;-74
2021/03/20 01:35:31;;;;;;;5.53;3.08;;;;;;;0.42;68.53;100609.04;1773320;79;21208;-74
2021/03/20 01:37:57;;;;;;;5.42;2.90;;;;;;;0.47;68.04;100609.66;1767956;79;21634;-73
2021/03/20 01:40:27;;;;;;;6.57;3.20;;;;;;;0.29;68.23;100609.67;1770836;79;21589;-74
2021/03/20 01:42:53;;;;;;;6.92;3.00;;;;;;;0.13;68.53;100611.39;1770881;79;21184;-74
2021/03/20 01:45:25;;;;;;;6.00;3.10;;;;;;;-0.04;69.24;100610.47;1770048;79;20951;-75
2021/03/20 01:48:11;;;;;;;4.90;2.20;;;;;;;-0.03;69.30;100612.16;1769566;79;21496;-74
2021/03/20 01:50:57;;;;;;;8.08;2.98;;;;;;;0.04;69.53;100617.05;1768408;79;21488;-74
2021/03/20 01:53:36;;;;;;;6.20;2.83;;;;;;;0.26;68.72;100621.98;1774911;79;21196;-74
2021/03/20 01:56:10;;;;;;;7.53;2.80;;;;;;;0.55;68.05;100619.19;1771899;79;21194;-74
2021/03/20 01:58:38;;;;;;;5.75;2.83;;;;;;;0.56;67.70;100619.58;1769459;79;21650;-74
2021/03/20 02:01:11;;;;;;;8.15;2.67;;;;;;;0.55;67.37;100620.48;1768985;79;21322;-74
2021/03/20 02:03:37;;;;;;;6.22;2.60;;;;;;;0.55;67.48;100624.38;1770722;79;21221;-74
2021/03/20 02:06:04;;;;;;;5.65;2.85;;;;;;;0.39;67.45;100636.48;1769773;79;21262;-73
2021/03/20 02:08:30;;;;;;;7.17;2.65;;;;;;;0.37;67.55;100624.04;1768439;79;21212;-75
2021/03/20 02:11:06;;;;;;;7.73;3.30;;;;;;;0.37;67.69;100639.63;1774015;79;22600;-75
2021/03/20 02:13:39;;;;;;;4.97;2.50;;;;;;;0.28;68.07;100637.89;1774342;79;21252;-74
2021/03/20 02:16:18;;;;;;;6.37;2.45;;;;;;;0.32;67.91;100635.49;1782446;79;21533;-74
2021/03/20 02:18:48;;;;;;;5.58;3.10;;;;;;;0.23;68.00;100643.75;1775232;79;21623;-73
2021/03/20 02:21:27;;;;;;;7.50;2.87;;;;;;;0.35;67.89;100640.53;1780528;79;21272;-74
2021/03/20 02:24:16;;;;;;;5.22;2.60;;;;;;;0.31;67.55;100636.43;1783774;79;22597;-73
2021/03/20 02:27:04;;;;;;;5.60;2.58;;;;;;;0.37;67.47;100637.86;1776274;79;21202;-74
2021/03/20 02:30:15;;;;;;;5.60;2.50;;;;;;;0.39;67.27;100642.97;1778890;79;21639;-74
2021/03/20 02:33:07;;;;;;;7.25;2.80;;;;;;;0.28;67.22;100646.12;1776098;79;21195;-74
2021/03/20 02:35:45;;;;;;;6.75;2.77;;;;;;;0.40;67.27;100645.96;1777668;79;21210;-74
2021/03/20 02:38:46;;;;;;;5.55;2.50;;;;;;;0.43;67.12;100647.11;1780273;79;21270;-74
2021/03/20 02:41:35;;;;;;;8.85;3.47;;;;;;;0.48;66.77;100652.89;1778481;79;21387;-74
2021/03/20 02:44:09;;;;;;;7.83;2.83;;;;;;;0.31;67.21;100655.91;1778644;79;21201;-73
2021/03/20 02:46:49;;;;;;;7.20;3.17;;;;;;;0.31;67.37;100650.72;1779345;79;21610;-74
2021/03/20 02:49:35;;;;;;;8.50;3.30;;;;;;;0.33;67.26;100644.98;1776661;79;21589;-74
2021/03/20 02:52:12;;;;;;;6.35;3.12;;;;;;;0.31;67.41;100644.66;1780837;79;21229;-75
2021/03/20 02:54:49;;;;;;;10.80;3.83;;;;;;;0.31;67.06;100652.02;1785766;79;21614;-74
2021/03/20 02:57:25;;;;;;;9.00;3.60;;;;;;;0.41;67.12;100651.55;1775073;79;21202;-74
2021/03/20 03:00:02;;;;;;;11.40;3.67;;;;;;;0.33;67.52;100656.66;1780681;79;21208;-74
2021/03/20 03:02:29;;;;;;;9.30;4.10;;;;;;;0.30;67.66;100661.19;1781385;78;21635;-74
2021/03/20 03:05:09;;;;;;;10.80;4.53;;;;;;;0.25;67.96;100659.26;1766956;79;21176;-74
2021/03/20 03:07:40;;;;;;;10.80;4.30;;;;;;;0.10;68.07;100669.50;1774468;79;21227;-74
2021/03/20 03:10:19;;;;;;;10.65;4.55;;;;;;;-0.37;69.32;100672.20;1755739;80;21210;-73
2021/03/20 03:12:49;;;;;;;8.20;3.62;;;;;;;-0.22;69.20;100682.32;1782583;79;21196;-74
2021/03/20 03:15:19;;;;;;;13.70;4.78;;;;;;;-0.25;69.17;100674.69;1770864;80;21212;-73
2021/03/20 03:17:49;;;;;;;12.70;4.75;;;;;;;-0.33;69.35;100686.33;1770953;80;21224;-75
2021/03/20 03:20:22;;;;;;;7.92;3.98;;;;;;;-0.23;68.99;100683.69;1765119;80;21322;-74
2021/03/20 03:22:53;;;;;;;11.43;4.92;;;;;;;-0.02;68.84;100683.09;1766005;80;21464;-74
2021/03/20 03:25:26;;;;;;;11.88;4.70;;;;;;;0.20;68.22;100682.86;1773119;80;21180;-74
2021/03/20 03:27:53;;;;;;;11.03;4.42;;;;;;;0.37;67.84;100687.69;1772005;80;21117;-75
2021/03/20 03:30:21;;;;;;;11.70;4.70;;;;;;;0.39;67.55;100687.14;1769532;78;21620;-74
2021/03/20 03:32:53;;;;;;;10.63;4.72;;;;;;;0.44;67.35;100689.06;1765705;78;22544;-74
2021/03/20 03:35:27;;;;;;;12.60;5.17;;;;;;;0.30;67.27;100684.09;1768065;80;21204;-74
2021/03/20 03:38:07;;;;;;;11.53;4.72;;;;;;;0.27;66.84;100693.81;1768020;80;21173;-74
2021/03/20 03:40:44;;;;;;;14.73;5.60;;;;;;;0.26;67.00;100700.74;1770563;80;21204;-74
2021/03/20 03:43:10;;;;;;;10.35;4.53;;;;;;;0.29;66.94;100701.89;1767745;80;21220;-75
2021/03/20 03:45:36;;;;;;;13.32;4.85;;;;;;;0.26;66.65;100703.34;1774076;80;21674;-74
2021/03/20 03:48:02;;;;;;;11.30;3.97;;;;;;;-0.01;67.33;100708.98;1770869;80;24220;-74
2021/03/20 03:50:34;;;;;;;11.63;4.53;;;;;;;-0.23;67.68;100705.75;1767821;80;21563;-74
2021/03/20 03:53:04;;;;;;;13.83;4.35;;;;;;;0.11;67.48;100709.29;1768302;80;21172;-74
2021/03/20 03:55:30;;;;;;;12.28;4.65;;;;;;;0.12;67.28;100708.38;1769109;80;21230;-74
2021/03/20 03:58:16;;;;;;;10.90;4.40;;;;;;;0.04;67.32;100707.92;1766795;80;21311;-74
2021/03/20 04:01:03;;;;;;;10.18;4.53;;;;;;;0.08;67.37;100713.33;1769266;80;21247;-75
2021/03/20 04:03:54;;;;;;;9.63;3.52;;;;;;;0.02;67.45;100721.42;1773192;80;21214;-73
2021/03/20 04:06:43;;;;;;;8.93;3.85;;;;;;;-0.02;67.42;100721.59;1734801;79;21204;-72
2021/03/20 04:09:29;;;;;;;10.35;5.03;;;;;;;0.19;67.09;100716.27;1723409;79;21143;-73
2021/03/20 04:12:03;;;;;;;8.50;3.58;;;;;;;0.00;67.32;100720.23;1771332;80;21916;-73
2021/03/20 04:14:44;;;;;;;10.98;4.22;;;;;;;0.04;67.14;100718.31;1769282;79;22303;-73
2021/03/20 04:17:27;;;;;;;11.53;4.47;;;;;;;0.02;67.34;100720.12;1773761;79;21211;-74
2021/03/20 04:20:19;;;;;;;10.20;4.20;;;;;;;-0.01;67.18;100722.43;1774052;79;21181;-73
2021/03/20 04:22:53;;;;;;;10.20;4.75;;;;;;;0.09;66.99;100721.52;1776088;79;21553;-74
2021/03/20 04:25:47;;;;;;;11.05;4.53;;;;;;;0.12;67.04;100726.56;1772973;79;21875;-73
2021/03/20 04:28:38;;;;;;;13.98;4.95;;;;;;;0.12;67.07;100731.75;1773677;79;21218;-74
2021/03/20 04:31:18;;;;;;;13.30;4.75;;;;;;;0.11;67.23;100727.47;1774919;79;21192;-74
2021/03/20 04:34:01;;;;;;;12.55;5.08;;;;;;;0.25;66.92;100730.25;1775833;79;21205;-73
2021/03/20 04:36:35;;;;;;;10.32;4.67;;;;;;;0.24;66.65;100736.35;1775845;78;21459;-74
2021/03/20 04:39:03;;;;;;;11.35;4.50;;;;;;;0.23;66.79;100733.36;1772584;79;21893;-74
2021/03/20 04:41:28;;;;;;;11.53;4.30;;;;;;;0.22;66.67;100738.19;1772429;79;21182;-74
2021/03/20 04:43:54;;;;;;;9.57;4.10;;;;;;;0.24;66.68;100738.95;1773991;79;21602;-74
2021/03/20 04:46:25;;;;;;;13.03;4.90;;;;;;;-0.05;67.32;100739.92;1772187;79;21654;-74
2021/03/20 04:49:21;;;;;;;12.40;4.40;;;;;;;-0.15;67.70;100738.66;1773976;79;21226;-74
2021/03/20 04:52:11;;;;;;;8.93;4.20;;;;;;;0.08;67.73;100740.16;1773477;79;21681;-74
2021/03/20 04:54:37;;;;;;;10.60;4.25;;;;;;;0.26;66.58;100747.50;1773814;79;21192;-74
2021/03/20 04:57:17;;;;;;;11.63;4.97;;;;;;;0.26;66.58;100755.29;1773108;79;21638;-74
2021/03/20 05:00:08;;;;;;;15.93;4.90;;;;;;;0.43;66.07;100749.73;1770978;79;21212;-73
2021/03/20 05:02:42;;;;;;;12.75;4.65;;;;;;;0.35;65.99;100756.61;1774657;79;21212;-73
2021/03/20 05:05:31;;;;;;;10.90;4.17;;;;;;;0.37;66.19;100764.33;1771267;79;21272;-73
2021/03/20 05:08:04;;;;;;;9.68;3.98;;;;;;;0.37;66.06;100765.16;1774373;78;21205;-73
2021/03/20 05:10:43;;;;;;;9.95;4.70;;;;;;;0.44;65.78;100773.52;1770491;79;21250;-73
2021/03/20 05:13:47;;;;;;;10.00;4.40;;;;;;;0.34;65.71;100772.66;1761720;79;21189;-74
2021/03/20 05:16:21;;;;;;;11.88;4.20;;;;;;;0.18;66.18;100770.41;1751325;80;21238;-74
2021/03/20 05:18:49;;;;;;;9.95;3.60;;;;;;;0.23;66.29;100771.02;1754262;81;21703;-73
2021/03/20 05:21:21;;;;;;;9.98;4.00;;;;;;;0.32;66.14;100773.17;1758036;81;21193;-73
2021/03/20 05:23:47;;;;;;;9.23;3.60;;;;;;;0.12;66.39;100774.14;1750957;80;21219;-73
2021/03/20 05:26:13;;;;;;;11.77;4.30;;;;;;;0.11;66.69;100778.10;1752780;80;21361;-73
2021/03/20 05:28:38;;;;;;;9.03;4.00;;;;;;;0.16;66.99;100776.15;1758218;81;20937;-77
2021/03/20 05:31:04;;;;;;;10.67;3.70;;;;;;;0.34;66.57;100786.09;1761977;79;21104;-76
2021/03/20 05:33:32;;;;;;;9.23;3.70;;;;;;;0.40;66.21;100791.45;1757847;79;21216;-76
2021/03/20 05:35:57;;;;;;;8.45;3.67;;;;;;;0.17;66.27;100795.99;1753390;79;21663;-76
2021/03/20 05:38:23;;;;;;;10.23;3.80;;;;;;;0.21;66.22;100793.64;1755844;79;20927;-76
2021/03/20 05:40:49;;;;;;;11.07;4.20;;;;;;;0.31;65.85;100794.03;1756888;81;20971;-77
2021/03/20 05:43:41;;;;;;;9.43;3.90;;;;;;;0.18;65.84;100806.77;1754613;80;21122;-77
2021/03/20 05:46:34;;;;;;;10.32;4.20;;;;;;;0.34;65.83;100801.67;1721271;81;21184;-77
2021/03/20 05:49:21;;;;;;;9.98;3.90;;;;;;;0.40;65.64;100803.14;1746864;81;21238;-77
2021/03/20 05:52:10;;;;;;;6.60;3.00;;;;;;;0.35;64.95;100800.30;1756049;80;21637;-76
2021/03/20 05:54:48;;;;;;;16.05;5.40;;;;;;;0.52;65.11;100807.27;1752722;81;21202;-77
2021/03/20 05:57:26;;;;;;;14.95;4.83;;;;;;;0.32;66.98;100804.34;1737061;80;21441;-76
2021/03/20 06:00:33;;;;;;;12.07;3.77;;;;;;;0.44;66.14;100804.22;1749214;80;21199;-77
2021/03/20 06:03:10;;;;;;;13.28;4.33;;;;;;;0.58;64.86;100815.23;1758553;81;21528;-77
2021/03/20 06:05:50;;;;;;;11.97;4.50;;;;;;;0.43;64.46;100812.92;1754572;80;21714;-77
2021/03/20 06:08:55;;;;;;;11.12;4.33;;;;;;;0.46;63.73;100810.64;1752464;81;21299;-77
2021/03/20 06:11:41;;;;;;;12.93;4.53;;;;;;;0.53;63.66;100818.53;1755995;81;21651;-77
2021/03/20 06:14:32;;;;;;;9.13;3.60;;;;;;;0.39;62.45;100814.44;1757557;80;21208;-76
2021/03/20 06:17:24;;;;;;;8.15;3.70;;;;;;;0.30;62.31;100813.98;1758461;80;21193;-76
2021/03/20 06:20:34;;;;;;;10.78;4.08;;;;;;;0.37;62.16;100825.38;1756951;80;21227;-77
2021/03/20 06:23:29;;;;;;;10.55;4.30;;;;;;;0.58;61.71;100813.94;1759993;80;21602;-77
2021/03/20 06:26:17;;;;;;;13.32;4.80;;;;;;;0.77;61.37;100829.92;1759912;80;21967;-77
2021/03/20 06:28:57;;;;;;;11.53;4.28;;;;;;;0.76;60.65;100823.86;1753195;80;21177;-77
2021/03/20 06:31:33;;;;;;;11.05;4.25;;;;;;;0.77;61.10;100831.23;1761756;80;21079;-76
2021/03/20 06:34:15;;;;;;;12.82;4.30;;;;;;;0.78;60.50;100831.59;1757942;80;21264;-77
2021/03/20 06:37:04;;;;;;;10.15;4.05;;;;;;;0.74;60.24;100835.28;1716238;80;21635;-77
2021/03/20 06:39:47;;;;;;;12.13;4.37;;;;;;;0.82;60.14;100833.96;1758477;80;21585;-76
2021/03/20 06:42:29;;;;;;;13.43;4.00;;;;;;;0.63;59.71;100841.83;1758897;80;21232;-77
2021/03/20 06:45:08;;;;;;;13.38;4.85;;;;;;;0.80;59.47;100836.27;1756221;80;21212;-77
2021/03/20 06:47:37;;;;;;;10.68;4.65;;;;;;;0.83;59.13;100843.92;1736539;81;21196;-76
2021/03/20 06:50:18;;;;;;;9.73;4.20;;;;;;;0.84;58.52;100846.87;1760198;80;21229;-78
2021/03/20 06:52:50;;;;;;;11.40;4.25;;;;;;;0.95;58.89;100839.41;1761876;80;21843;-80
2021/03/20 06:55:24;;;;;;;12.23;4.62;;;;;;;1.06;58.52;100842.77;1731853;80;21217;-80
2021/03/20 06:57:49;;;;;;;17.10;4.65;;;;;;;1.16;58.51;100844.43;1759948;80;21221;-79
2021/03/20 07:00:23;;;;;;;10.07;4.63;;;;;;;1.13;58.52;100844.59;1760177;80;21071;-79
2021/03/20 07:03:34;;;;;;;12.65;4.50;;;;;;;0.96;58.31;100846.27;1759178;80;21142;-79
2021/03/20 07:06:32;;;;;;;15.05;4.53;;;;;;;1.00;58.06;100849.11;1758211;80;21246;-80
2021/03/20 07:09:04;;;;;;;13.55;4.90;;;;;;;1.11;58.05;100849.04;1760148;80;22119;-80
2021/03/20 07:11:40;;;;;;;9.93;4.58;;;;;;;0.99;57.89;100852.62;1759304;80;21162;-80
2021/03/20 07:14:12;;;;;;;11.10;4.30;;;;;;;1.23;57.50;100854.91;1758496;80;21185;-79
2021/03/20 07:16:51;;;;;;;12.35;4.58;;;;;;;1.37;57.43;100857.64;1736764;81;21144;-79
2021/03/20 07:19:17;;;;;;;14.43;4.70;;;;;;;1.36;57.08;100859.85;1751919;80;21653;-79
2021/03/20 07:21:44;;;;;;;13.23;4.63;;;;;;;1.35;56.82;100856.89;1755173;80;20948;-80
2021/03/20 07:24:17;;;;;;;12.33;4.80;;;;;;;1.32;56.47;100859.65;1754456;79;21978;-80
2021/03/20 07:26:58;;;;;;;12.40;5.50;;;;;;;1.46;56.90;100863.28;1753824;80;21878;-80
2021/03/20 07:29:42;;;;;;;14.47;5.47;;;;;;;1.18;56.85;100865.99;1755575;80;21228;-80
2021/03/20 07:32:08;;;;;;;12.30;4.45;;;;;;;1.26;56.89;100869.07;1758158;81;21204;-80
2021/03/20 07:34:34;;;;;;;12.23;4.60;;;;;;;1.39;56.28;100874.00;1755599;80;21216;-79
2021/03/20 07:37:13;;;;;;;12.20;5.10;;;;;;;1.34;55.66;100873.41;1755285;80;21564;-80
2021/03/20 07:39:52;;;;;;;11.25;4.55;;;;;;;1.29;56.07;100883.66;1755557;79;21220;-80
2021/03/20 07:42:39;;;;;;;10.48;4.45;;;;;;;1.33;56.74;100871.72;1755935;81;21205;-81
2021/03/20 07:45:10;;;;;;;10.63;4.62;;;;;;;1.42;55.41;100882.95;1736165;81;21341;-79
2021/03/20 07:47:40;;;;;;;12.85;4.80;;;;;;;1.58;55.78;100885.59;1746650;80;21158;-79
2021/03/20 07:50:20;;;;;;;12.70;4.80;;;;;;;1.60;55.54;100888.12;1756645;80;21634;-80
2021/03/20 07:52:49;;;;;;;12.58;5.47;;;;;;;1.71;55.17;100891.46;1755619;81;21202;-79
2021/03/20 07:55:18;;;;;;;14.47;5.75;;;;;;;1.72;54.50;100887.47;1756089;81;21236;-79
2021/03/20 07:57:56;;;;;;;11.00;5.10;;;;;;;1.87;54.95;100890.21;1755243;81;22048;-80
2021/03/20 08:00:32;;;;;;;14.15;5.20;;;;;;;1.81;53.80;100872.31;1757853;80;21244;-80
2021/03/20 08:03:17;;;;;;;11.48;5.20;;;;;;;2.03;54.42;100891.05;1756022;80;21188;-79
2021/03/20 08:05:42;;;;;;;10.65;4.60;;;;;;;2.25;54.75;100893.35;1751993;79;21191;-78
2021/03/20 08:08:20;;;;;;;13.40;5.13;;;;;;;2.36;53.44;100897.95;1758363;80;20991;-79
2021/03/20 08:10:52;;;;;;;13.58;4.65;;;;;;;2.08;53.27;100904.69;1757874;80;21649;-79
2021/03/20 08:13:26;;;;;;;13.08;5.30;;;;;;;2.13;53.30;100887.03;1756983;79;22045;-79
2021/03/20 08:15:55;;;;;;;12.25;4.85;;;;;;;2.13;53.30;100887.03;1771974;79;21205;-80
2021/03/20 08:18:34;;;;;;;11.90;4.70;;;;;;;2.16;52.74;100916.00;1789714;79;21200;-79
2021/03/20 08:21:28;;;;;;;15.50;4.85;;;;;;;2.22;52.89;100916.11;1776241;79;21197;-79
2021/03/20 08:24:42;;;;;;;13.88;5.08;;;;;;;2.23;52.26;100917.80;1780538;79;22398;-79
2021/03/20 08:27:49;;;;;;;11.38;4.40;;;;;;;2.07;52.88;100917.33;1785002;79;21654;-79
2021/03/20 08:30:55;;;;;;;14.18;4.87;;;;;;;2.25;52.91;100906.83;1730060;80;21272;-79
2021/03/20 08:33:41;;;;;;;15.45;5.22;;;;;;;2.26;52.26;100923.68;1788655;79;21286;-79
2021/03/20 08:36:49;;;;;;;17.47;5.70;;;;;;;2.26;52.26;100923.68;1779401;78;21196;-80
2021/03/20 08:39:35;;;;;;;13.65;5.25;;;;;;;2.18;51.91;100925.04;1781236;79;21341;-80
2021/03/20 08:42:34;;;;;;;12.55;5.17;;;;;;;2.25;52.66;100919.85;1782781;79;21415;-79
2021/03/20 08:45:14;;;;;;;15.18;4.97;;;;;;;2.51;52.57;100930.98;1785324;79;21136;-78
2021/03/20 08:48:09;;;;;;;14.05;5.30;;;;;;;2.82;51.38;100922.75;1778211;79;21279;-78
2021/03/20 08:50:56;;;;;;;13.00;4.85;;;;;;;2.68;50.62;100924.00;1783235;78;21197;-78
2021/03/20 08:53:30;;;;;;;12.55;4.60;;;;;;;2.99;50.35;100920.96;1725471;79;21174;-76
2021/03/20 08:56:03;;;;;;;10.72;4.67;;;;;;;2.73;50.48;100928.96;1779556;79;21182;-76
2021/03/20 08:58:38;;;;;;;15.10;5.62;;;;;;;2.81;50.81;100929.36;1780095;79;21248;-78
2021/03/20 09:01:32;;;;;;;15.30;5.47;;;;;;;2.66;50.53;100929.78;1783513;79;21128;-78
2021/03/20 09:04:00;;;;;;;13.55;5.03;;;;;;;2.76;50.64;100929.63;1778438;79;21196;-79
2021/03/20 09:06:46;;;;;;;15.08;5.12;;;;;;;2.85;49.99;100934.80;1779195;79;21600;-78
2021/03/20 09:09:24;;;;;;;12.43;4.70;;;;;;;2.75;49.69;100931.87;1778960;79;21208;-80
2021/03/20 09:12:07;;;;;;;12.45;5.12;;;;;;;2.53;49.50;100936.59;1780622;79;21205;-80
2021/03/20 09:14:43;;;;;;;11.50;4.45;;;;;;;2.58;50.07;100930.65;1781172;78;21188;-80
2021/03/20 09:17:26;;;;;;;8.55;4.22;;;;;;;2.61;48.47;100936.55;1780601;79;21220;-78
2021/03/20 09:20:05;;;;;;;9.85;3.77;;;;;;;2.74;48.69;100941.91;1760382;79;21560;-78
2021/03/20 09:22:32;;;;;;;11.93;4.33;;;;;;;2.53;49.43;100943.11;1783756;79;21244;-81
2021/03/20 09:25:05;;;;;;;9.23;3.67;;;;;;;2.36;49.97;100946.64;1779470;79;21106;-79
2021/03/20 09:28:14;;;;;;;11.25;4.30;;;;;;;2.56;49.65;100940.33;1782643;79;21273;-81
2021/03/20 09:30:50;;;;;;;11.38;4.20;;;;;;;2.80;48.83;100944.18;1783035;79;21598;-81
2021/03/20 09:33:32;;;;;;;11.08;4.58;;;;;;;3.08;48.13;100940.45;1781589;79;21208;-79
2021/03/20 09:36:06;;;;;;;11.00;4.40;;;;;;;3.26;48.50;100941.16;1772391;79;21562;-80
2021/03/20 09:38:42;;;;;;;10.32;4.37;;;;;;;3.34;48.25;100948.07;1787382;79;21173;-80
2021/03/20 09:41:19;;;;;;;11.03;4.72;;;;;;;3.21;47.51;100946.17;1784875;79;21180;-79
2021/03/20 09:44:03;;;;;;;11.08;4.33;;;;;;;2.97;48.53;100947.61;1786464;78;25401;-79
2021/03/20 09:46:44;;;;;;;9.75;4.10;;;;;;;2.91;48.20;100959.23;1784399;79;21168;-80
2021/03/20 09:49:18;;;;;;;11.60;4.72;;;;;;;3.02;48.66;100958.62;1778731;79;21102;-79
2021/03/20 09:51:57;;;;;;;11.93;4.47;;;;;;;3.22;48.78;100953.56;1783935;79;21202;-79
2021/03/20 09:55:12;;;;;;;;;;;;;;;;;;;;;
2021/03/20 10:07:59;;;;;;;10.15;4.17;;;;;;;3.15;47.48;100959.58;1462370;95;25880;-77
2021/03/20 10:10:44;;;;;;;11.48;4.60;;;;;;;3.27;47.41;100962.44;1441211;95;21330;-77
2021/03/20 10:12:56;;;;;;;9.78;4.08;;;;;;;3.16;47.74;100956.05;1627444;85;21264;-76
2021/03/20 10:15:28;;;;;;;10.13;4.17;;;;;;;3.11;46.94;100962.01;1670567;82;21307;-74
2021/03/20 10:18:17;;;;;;;8.05;4.10;;;;;;;2.92;47.19;100970.49;1698300;82;21180;-77
2021/03/20 10:20:59;;;;;;;9.95;3.95;;;;;;;2.96;46.74;100968.09;1701237;82;21708;-74
2021/03/20 10:23:53;;;;;;;11.53;4.08;;;;;;;2.93;47.35;100972.19;1693275;82;21662;-73
2021/03/20 10:26:46;;;;;;;7.97;3.90;;;;;;;2.73;47.43;100971.52;1773794;79;21736;-74
2021/03/20 10:29:26;;;;;;;9.53;4.35;;;;;;;2.87;47.18;100974.22;1763478;79;21429;-75
2021/03/20 10:31:54;;;;;;;10.58;4.00;;;;;;;2.86;47.31;100967.31;1784773;79;21225;-72
2021/03/20 10:34:24;;;;;;;13.62;4.78;;;;;;;2.72;47.05;100962.03;1786609;79;21184;-73
2021/03/20 10:37:08;;;;;;;14.73;4.55;;;;;;;2.66;47.17;100961.07;1780384;79;21197;-73
2021/03/20 10:43:10;;;;;;;;;;;;;;;;;;;;;
2021/03/20 10:45:45;;;;;;;;;;;;;;;2.84;46.86;100964.40;1649299;85;21007;-73
2021/03/20 10:48:29;;;;;;;10.00;4.10;;;;;;;3.13;46.27;100956.23;1725229;79;20268;-72
2021/03/20 10:51:27;;;;;;;;;;;;;;;;;;;;;
2021/03/20 10:54:27;;;;;;;10.15;3.62;;;;;;;3.10;45.68;100961.63;1675158;80;21268;-75
2021/03/20 10:57:50;;;;;;;;;;;;;;;;;;;;;
2021/03/20 11:00:43;;;;;;;8.58;3.17;;;;;;;3.36;44.21;100961.89;1649010;84;21262;-77
2021/03/20 11:03:29;;;;;;;7.50;3.08;;;;;;;3.69;42.94;100964.75;1683351;83;21264;-74
2021/03/20 11:05:58;;;;;;;10.17;3.40;;;;;;;3.94;42.89;100963.63;1705439;82;21184;-74
2021/03/20 11:08:31;;;;;;;11.78;3.50;;;;;;;4.15;43.49;100960.66;1732866;79;21208;-76
2021/03/20 11:11:12;;;;;;;6.40;3.08;;;;;;;3.77;41.89;100966.42;1772386;79;21496;-74
2021/03/20 11:13:41;;;;;;;7.83;3.40;;;;;;;3.76;41.59;100962.98;1781463;79;21157;-74
2021/03/20 11:16:21;;;;;;;5.62;2.92;;;;;;;3.75;40.85;100963.91;1775400;79;21498;-73
2021/03/20 11:18:51;;;;;;;5.03;2.40;;;;;;;3.77;39.95;100959.42;1773035;79;21182;-74
2021/03/20 11:21:24;;;;;;;7.70;3.10;;;;;;;3.55;39.79;100961.65;1773211;79;22240;-74
2021/03/20 11:24:06;;;;;;;6.85;3.02;;;;;;;3.67;40.31;100956.17;1778552;79;21209;-73
2021/03/20 11:26:39;;;;;;;7.55;3.12;;;;;;;3.80;40.30;100953.18;1779962;79;21188;-74
2021/03/20 11:29:08;;;;;;;8.70;3.42;;;;;;;3.81;41.11;100951.40;1773998;79;21216;-72
2021/03/20 11:31:53;;;;;;;7.75;2.72;;;;;;;3.65;41.07;100961.94;1777876;79;21184;-73
2021/03/20 11:34:27;;;;;;;10.32;3.12;;;;;;;3.97;41.59;100948.72;1760871;79;21191;-73
2021/03/20 11:36:53;;;;;;;6.20;2.83;;;;;;;3.83;39.96;100949.08;1779952;78;21737;-72
2021/03/20 11:39:20;;;;;;;5.50;2.75;;;;;;;3.76;39.80;100949.09;1776511;78;21197;-72
2021/03/20 11:41:46;;;;;;;9.17;2.87;;;;;;;3.68;39.22;100942.16;1778773;78;21672;-73
2021/03/20 11:44:25;;;;;;;6.50;2.80;;;;;;;3.76;39.20;100947.31;1779455;79;27816;-73
2021/03/20 11:46:55;;;;;;;6.45;3.15;;;;;;;3.84;39.34;100942.92;1783327;78;21776;-75
2021/03/20 11:49:52;;;;;;;6.87;3.05;;;;;;;3.68;38.89;100942.16;1775255;78;22198;-75
2021/03/20 11:52:21;;;;;;;11.70;2.60;;;;;;;3.87;39.45;100925.77;1781317;78;23962;-75
2021/03/20 11:55:03;;;;;;;6.20;2.65;;;;;;;4.12;39.85;100934.70;1776026;79;21241;-74
2021/03/20 11:57:38;;;;;;;7.60;3.12;;;;;;;4.24;39.19;100928.72;1757369;79;21225;-73
2021/03/20 12:00:35;;;;;;;9.35;3.47;;;;;;;4.18;39.05;100947.40;1776372;79;21666;-73
2021/03/20 12:03:03;;;;;;;5.90;3.10;;;;;;;3.83;38.95;100944.33;1779790;79;21676;-72
2021/03/20 12:05:33;;;;;;;7.80;3.20;;;;;;;3.93;39.81;100930.61;1777999;79;21200;-75
2021/03/20 12:08:28;;;;;;;9.05;3.00;;;;;;;3.64;39.87;100941.99;1777910;79;21186;-73
2021/03/20 12:11:13;;;;;;;8.78;3.10;;;;;;;3.36;40.45;100941.02;1737310;79;21197;-74
2021/03/20 12:13:49;;;;;;;8.40;3.37;;;;;;;3.36;40.59;100947.54;1782477;78;21164;-73
2021/03/20 12:16:37;;;;;;;7.95;3.20;;;;;;;3.15;41.98;100920.43;1782233;78;21399;-73
2021/03/20 12:19:20;;;;;;;11.03;3.25;;;;;;;3.21;42.18;100930.52;1774353;79;21638;-72
2021/03/20 12:22:08;;;;;;;7.05;3.10;;;;;;;3.18;41.92;100924.17;1782023;79;21960;-73
2021/03/20 12:24:45;;;;;;;8.55;3.08;;;;;;;3.20;41.56;100927.55;1769082;79;21276;-72
2021/03/20 12:27:36;;;;;;;7.95;2.92;;;;;;;3.40;41.18;100919.00;1778223;79;21197;-74
2021/03/20 12:30:27;;;;;;;7.30;3.00;;;;;;;3.49;41.36;100918.92;1780513;79;21215;-73
2021/03/20 12:32:55;;;;;;;7.40;2.72;;;;;;;3.62;41.84;100915.11;1779315;79;21667;-72
2021/03/20 12:35:30;;;;;;;8.25;3.02;;;;;;;3.63;41.88;100914.19;1773164;79;21177;-73
2021/03/20 12:38:09;;;;;;;9.35;3.00;;;;;;;3.80;41.69;100913.99;1776880;79;21194;-73